createdAt,value
2022-11-30T00:01:14.657Z,7.69
2022-11-30T00:03:41.690Z,7.71
2022-11-30T00:06:10.604Z,7.77
2022-11-30T00:08:37.414Z,7.76
2022-11-30T00:11:14.171Z,7.67
2022-11-30T00:13:42.072Z,7.63
2022-11-30T00:16:09.100Z,7.61
2022-11-30T00:18:36.330Z,7.60
2022-11-30T00:21:10.388Z,7.65
2022-11-30T00:23:39.202Z,7.60
2022-11-30T00:26:08.916Z,7.60
2022-11-30T00:28:36.291Z,7.65
2022-11-30T00:31:05.532Z,7.63
2022-11-30T00:33:33.949Z,7.64
2022-11-30T00:36:02.864Z,7.63
2022-11-30T00:38:29.514Z,7.71
2022-11-30T00:40:56.733Z,7.68
2022-11-30T00:43:23.837Z,7.64
2022-11-30T00:45:50.658Z,7.70
2022-11-30T00:48:17.327Z,7.68
2022-11-30T00:50:43.998Z,7.74
2022-11-30T00:53:10.653Z,7.73
2022-11-30T00:55:37.266Z,7.68
2022-11-30T00:58:03.975Z,7.67
2022-11-30T01:00:30.772Z,7.71
2022-11-30T01:02:59.389Z,7.66
2022-11-30T01:05:26.371Z,7.69
2022-11-30T01:07:52.988Z,7.74
2022-11-30T01:10:20.066Z,7.68
2022-11-30T01:12:46.647Z,7.70
2022-11-30T01:15:13.280Z,7.71
2022-11-30T01:17:39.895Z,7.69
2022-11-30T01:20:08.210Z,7.84
2022-11-30T01:22:35.701Z,7.75
2022-11-30T01:25:02.618Z,7.76
2022-11-30T01:27:29.298Z,7.72
2022-11-30T01:29:55.971Z,7.74
2022-11-30T01:32:22.812Z,7.74
2022-11-30T01:34:49.523Z,7.78
2022-11-30T01:37:16.233Z,7.75
2022-11-30T01:39:42.881Z,7.75
2022-11-30T01:42:15.763Z,7.73
2022-11-30T01:44:53.550Z,7.72
2022-11-30T01:47:42.641Z,7.78
2022-11-30T01:50:24.024Z,7.81
2022-11-30T01:52:56.391Z,7.80
2022-11-30T01:55:42.472Z,7.77
2022-11-30T01:58:28.006Z,7.77
2022-11-30T02:00:54.717Z,7.78
2022-11-30T02:03:24.327Z,7.79
2022-11-30T02:05:50.908Z,7.78
2022-11-30T02:08:19.056Z,7.80
2022-11-30T02:10:52.675Z,7.80
2022-11-30T02:13:22.171Z,7.77
2022-11-30T02:16:07.376Z,7.77
2022-11-30T02:18:55.624Z,7.75
2022-11-30T02:21:26.600Z,7.75
2022-11-30T02:23:56.004Z,7.73
2022-11-30T02:26:42.997Z,7.74
2022-11-30T02:29:17.855Z,7.78
2022-11-30T02:32:07.084Z,7.78
2022-11-30T02:34:36.989Z,7.79
2022-11-30T02:37:06.896Z,7.70
2022-11-30T02:39:33.570Z,7.74
2022-11-30T02:42:00.198Z,7.75
2022-11-30T02:44:28.294Z,7.76
2022-11-30T02:47:20.219Z,7.69
2022-11-30T02:49:50.310Z,7.65
2022-11-30T02:52:19.829Z,7.59
2022-11-30T02:54:46.757Z,7.54
2022-11-30T02:57:13.572Z,7.57
2022-11-30T02:59:40.406Z,7.53
2022-11-30T03:02:06.976Z,7.50
2022-11-30T03:04:33.571Z,7.51
2022-11-30T03:07:00.245Z,7.53
2022-11-30T03:09:26.847Z,7.49
2022-11-30T03:11:53.423Z,7.47
2022-11-30T03:14:20.028Z,7.47
2022-11-30T03:16:46.598Z,7.48
2022-11-30T03:19:14.192Z,7.50
2022-11-30T03:21:40.887Z,7.52
2022-11-30T03:24:07.928Z,7.55
2022-11-30T03:26:34.558Z,7.52
2022-11-30T03:29:01.201Z,7.61
2022-11-30T03:31:27.968Z,7.62
2022-11-30T03:33:54.622Z,7.51
2022-11-30T03:36:21.389Z,7.50
2022-11-30T03:38:47.978Z,7.50
2022-11-30T03:41:16.595Z,7.52
2022-11-30T03:43:44.726Z,7.52
2022-11-30T03:46:11.792Z,7.52
2022-11-30T03:48:38.580Z,7.48
2022-11-30T03:51:05.815Z,7.52
2022-11-30T03:53:32.721Z,7.54
2022-11-30T03:56:02.432Z,7.62
2022-11-30T03:58:29.664Z,7.62
2022-11-30T04:01:06.938Z,7.62
2022-11-30T04:03:34.341Z,7.50
2022-11-30T04:06:01.273Z,7.47
2022-11-30T04:08:29.385Z,7.49
2022-11-30T04:10:57.926Z,7.51
2022-11-30T04:13:25.476Z,7.51
2022-11-30T04:15:55.021Z,7.47
2022-11-30T04:18:23.466Z,7.48
2022-11-30T04:20:52.408Z,7.40
2022-11-30T04:23:20.397Z,7.35
2022-11-30T04:25:48.154Z,7.35
2022-11-30T04:28:16.146Z,7.43
2022-11-30T04:30:43.305Z,7.42
2022-11-30T04:33:10.426Z,7.39
2022-11-30T04:35:42.101Z,7.38
2022-11-30T04:38:08.793Z,7.39
2022-11-30T04:40:39.777Z,7.35
2022-11-30T04:43:06.519Z,7.39
2022-11-30T04:45:35.586Z,7.46
2022-11-30T04:48:03.677Z,7.50
2022-11-30T04:50:30.402Z,7.50
2022-11-30T04:52:57.242Z,7.49
2022-11-30T04:55:24.597Z,7.49
2022-11-30T04:57:51.296Z,7.46
2022-11-30T05:00:19.719Z,7.57
2022-11-30T05:02:52.501Z,7.55
2022-11-30T05:05:20.039Z,7.49
2022-11-30T05:07:59.316Z,7.49
2022-11-30T05:10:27.780Z,7.47
2022-11-30T05:12:54.732Z,7.45
2022-11-30T05:15:21.523Z,7.48
2022-11-30T05:17:48.124Z,7.54
2022-11-30T05:20:14.864Z,7.57
2022-11-30T05:22:41.444Z,7.54
2022-11-30T05:25:09.297Z,7.51
2022-11-30T05:27:37.086Z,7.52
2022-11-30T05:30:04.116Z,7.48
2022-11-30T05:32:30.700Z,7.54
2022-11-30T05:34:57.740Z,7.55
2022-11-30T05:37:24.708Z,7.46
2022-11-30T05:39:51.350Z,7.39
2022-11-30T05:42:18.036Z,7.36
2022-11-30T05:44:45.430Z,7.42
2022-11-30T05:47:12.591Z,7.42
2022-11-30T05:49:39.330Z,7.47
2022-11-30T05:52:05.996Z,7.39
2022-11-30T05:54:34.418Z,7.37
2022-11-30T05:57:01.403Z,7.38
2022-11-30T05:59:28.010Z,7.46
2022-11-30T06:01:54.792Z,7.42
2022-11-30T06:04:21.835Z,7.36
2022-11-30T06:06:49.601Z,7.34
2022-11-30T06:09:16.634Z,7.39
2022-11-30T06:11:43.292Z,7.34
2022-11-30T06:14:09.837Z,7.26
2022-11-30T06:16:39.726Z,7.28
2022-11-30T06:19:06.774Z,7.23
2022-11-30T06:21:33.546Z,7.25
2022-11-30T06:24:01.058Z,7.35
2022-11-30T06:26:27.693Z,7.35
2022-11-30T06:28:54.291Z,7.38
2022-11-30T06:31:21.009Z,7.35
2022-11-30T06:33:47.651Z,7.38
2022-11-30T06:36:14.209Z,7.39
2022-11-30T06:38:40.838Z,7.43
2022-11-30T06:41:09.558Z,7.42
2022-11-30T06:43:37.991Z,7.46
2022-11-30T06:46:05.849Z,7.40
2022-11-30T06:48:32.984Z,7.52
2022-11-30T06:51:00.565Z,7.55
2022-11-30T06:53:27.617Z,7.54
2022-11-30T06:55:54.230Z,7.56
2022-11-30T06:58:20.870Z,7.52
2022-11-30T07:00:47.739Z,7.57
2022-11-30T07:03:14.605Z,7.64
2022-11-30T07:05:46.073Z,7.65
2022-11-30T07:08:14.848Z,7.65
2022-11-30T07:10:43.050Z,7.71
2022-11-30T07:13:12.059Z,7.74
2022-11-30T07:15:40.380Z,7.77
2022-11-30T07:18:07.858Z,7.77
2022-11-30T07:20:35.006Z,7.76
2022-11-30T07:23:20.036Z,7.88
2022-11-30T07:26:05.398Z,7.80
2022-11-30T07:28:36.601Z,7.88
2022-11-30T07:31:16.389Z,7.98
2022-11-30T07:33:43.766Z,8.06
2022-11-30T07:36:10.853Z,8.05
2022-11-30T07:38:38.207Z,8.04
2022-11-30T07:41:05.412Z,8.00
2022-11-30T07:43:32.677Z,8.00
2022-11-30T07:46:00.200Z,7.96
2022-11-30T07:48:27.353Z,7.93
2022-11-30T07:50:54.238Z,8.02
2022-11-30T07:53:20.888Z,7.94
2022-11-30T07:55:48.944Z,7.90
2022-11-30T07:58:18.122Z,7.93
2022-11-30T08:00:44.713Z,7.96
2022-11-30T08:03:11.386Z,7.94
2022-11-30T08:05:38.133Z,7.97
2022-11-30T08:08:04.734Z,7.93
2022-11-30T08:10:31.801Z,7.93
2022-11-30T08:12:58.436Z,7.91
2022-11-30T08:15:31.885Z,7.88
2022-11-30T08:18:05.276Z,7.93
2022-11-30T08:20:31.929Z,7.91
2022-11-30T08:22:58.917Z,7.94
2022-11-30T08:25:25.515Z,7.95
2022-11-30T08:27:52.096Z,8.03
2022-11-30T08:30:18.811Z,8.03
2022-11-30T08:32:45.352Z,8.05
2022-11-30T08:35:11.903Z,8.08
2022-11-30T08:37:38.855Z,8.12
2022-11-30T08:40:06.249Z,8.06
2022-11-30T08:42:32.872Z,8.10
2022-11-30T08:44:59.789Z,8.09
2022-11-30T08:47:26.735Z,8.17
2022-11-30T08:49:53.340Z,8.18
2022-11-30T08:52:19.963Z,8.14
2022-11-30T08:54:48.205Z,8.24
2022-11-30T08:57:21.436Z,8.17
2022-11-30T08:59:48.644Z,8.20
2022-11-30T09:02:18.105Z,8.21
2022-11-30T09:04:47.558Z,8.13
2022-11-30T09:07:14.426Z,7.96
2022-11-30T09:09:41.058Z,7.90
2022-11-30T09:12:08.103Z,7.79
2022-11-30T09:14:34.908Z,7.76
2022-11-30T09:17:01.568Z,7.72
2022-11-30T09:19:28.376Z,7.79
2022-11-30T09:21:55.095Z,7.73
2022-11-30T09:24:21.788Z,7.76
2022-11-30T09:26:48.432Z,7.85
2022-11-30T09:29:15.167Z,7.75
2022-11-30T09:31:41.791Z,7.69
2022-11-30T09:34:11.353Z,7.76
2022-11-30T09:36:37.972Z,7.76
2022-11-30T09:39:04.516Z,7.78
2022-11-30T09:42:04.811Z,7.77
2022-11-30T09:44:43.485Z,7.77
2022-11-30T09:47:10.235Z,7.78
2022-11-30T09:49:45.779Z,7.83
2022-11-30T09:52:18.899Z,7.83
2022-11-30T09:54:47.111Z,7.83
2022-11-30T09:57:29.110Z,7.78
2022-11-30T10:00:01.006Z,7.75
2022-11-30T10:02:33.972Z,7.85
2022-11-30T10:05:01.149Z,7.90
2022-11-30T10:07:39.565Z,7.83
2022-11-30T10:10:30.932Z,7.87
2022-11-30T10:13:11.368Z,7.84
2022-11-30T10:15:48.509Z,7.85
2022-11-30T10:18:42.833Z,7.80
2022-11-30T10:21:38.146Z,7.83
2022-11-30T10:24:04.703Z,7.82
2022-11-30T10:26:38.264Z,7.86
2022-11-30T10:29:14.501Z,7.94
2022-11-30T10:31:43.422Z,7.97
2022-11-30T10:34:21.341Z,8.04
2022-11-30T10:37:06.415Z,8.00
2022-11-30T10:39:43.861Z,8.03
2022-11-30T10:42:26.414Z,7.96
2022-11-30T10:45:23.568Z,7.90
2022-11-30T10:48:03.923Z,7.86
2022-11-30T10:50:31.716Z,7.86
2022-11-30T10:53:00.906Z,7.89
2022-11-30T10:55:31.776Z,7.82
2022-11-30T10:58:07.404Z,7.79
2022-11-30T11:00:33.979Z,7.76
2022-11-30T11:03:00.607Z,7.80
2022-11-30T11:05:29.268Z,7.90
2022-11-30T11:08:02.667Z,8.01
2022-11-30T11:10:51.463Z,7.95
2022-11-30T11:13:21.122Z,8.00
2022-11-30T11:15:59.733Z,8.06
2022-11-30T11:18:34.147Z,8.11
2022-11-30T11:21:06.251Z,8.09
2022-11-30T11:23:37.037Z,8.07
2022-11-30T11:26:05.524Z,8.04
2022-11-30T11:28:33.076Z,8.10
2022-11-30T11:31:00.113Z,8.02
2022-11-30T11:33:29.508Z,8.08
2022-11-30T11:36:08.247Z,8.15
2022-11-30T11:38:43.481Z,8.16
2022-11-30T11:41:33.735Z,8.16
2022-11-30T11:44:22.264Z,8.11
2022-11-30T11:47:01.253Z,8.05
2022-11-30T11:49:31.849Z,8.02
2022-11-30T11:52:14.563Z,8.04
2022-11-30T11:54:46.391Z,7.88
2022-11-30T11:57:15.863Z,7.86
2022-11-30T12:00:01.263Z,7.86
2022-11-30T12:02:45.584Z,7.88
2022-11-30T12:05:18.126Z,7.89
2022-11-30T12:07:53.823Z,7.92
2022-11-30T12:13:22.104Z,7.87
2022-11-30T12:15:58.650Z,7.89
2022-11-30T12:18:32.797Z,7.94
2022-11-30T12:21:14.529Z,7.98
2022-11-30T12:24:04.147Z,8.05
2022-11-30T12:26:33.734Z,8.11
2022-11-30T12:29:15.648Z,8.14
2022-11-30T12:32:12.773Z,8.16
2022-11-30T12:35:27.321Z,8.16
2022-11-30T12:38:15.985Z,8.19
2022-11-30T12:41:14.052Z,8.19
2022-11-30T12:44:09.522Z,8.21
2022-11-30T12:46:56.873Z,8.17
2022-11-30T12:49:53.198Z,8.15
2022-11-30T12:52:29.782Z,8.17
2022-11-30T12:54:56.318Z,8.17
2022-11-30T12:57:35.180Z,8.23
2022-11-30T13:00:13.761Z,8.21
2022-11-30T13:02:58.190Z,8.25
2022-11-30T13:05:32.791Z,8.29
2022-11-30T13:08:23.137Z,8.27
2022-11-30T13:10:55.964Z,8.23
2022-11-30T13:13:28.922Z,8.27
2022-11-30T13:15:56.580Z,8.28
2022-11-30T13:18:24.461Z,8.25
2022-11-30T13:21:09.752Z,8.28
2022-11-30T13:23:54.312Z,8.19
2022-11-30T13:26:49.606Z,8.23
2022-11-30T13:29:28.051Z,8.15
2022-11-30T13:32:17.694Z,8.13
2022-11-30T13:34:54.419Z,8.16
2022-11-30T13:37:27.155Z,8.06
2022-11-30T13:39:57.612Z,8.06
2022-11-30T13:42:47.345Z,8.03
2022-11-30T13:45:30.910Z,8.03
2022-11-30T13:47:58.862Z,8.02
2022-11-30T13:50:37.777Z,8.03
2022-11-30T13:53:04.438Z,8.07
2022-11-30T13:55:33.887Z,8.07
2022-11-30T13:58:00.477Z,8.11
2022-11-30T14:00:30.169Z,8.11
2022-11-30T14:03:19.410Z,8.11
2022-11-30T14:05:56.237Z,8.07
2022-11-30T14:08:22.783Z,8.00
2022-11-30T14:10:51.452Z,7.97
2022-11-30T14:13:20.287Z,7.94
2022-11-30T14:15:46.889Z,7.92
2022-11-30T14:18:21.794Z,7.94
2022-11-30T14:20:52.350Z,7.93
2022-11-30T14:23:27.568Z,7.91
2022-11-30T14:25:56.855Z,7.92
2022-11-30T14:28:28.646Z,7.90
2022-11-30T14:30:56.232Z,7.91
2022-11-30T14:33:45.586Z,7.89
2022-11-30T14:36:12.335Z,7.93
2022-11-30T14:38:42.188Z,7.91
2022-11-30T14:41:41.223Z,7.90
2022-11-30T14:44:14.423Z,7.93
2022-11-30T14:46:41.224Z,7.98
2022-11-30T14:49:24.091Z,7.90
2022-11-30T14:52:00.958Z,7.91
2022-11-30T14:54:46.670Z,7.92
2022-11-30T14:57:34.465Z,7.86
2022-11-30T15:00:01.114Z,7.83
2022-11-30T15:02:38.715Z,7.82
2022-11-30T15:05:07.311Z,7.80
2022-11-30T15:07:36.480Z,7.84
2022-11-30T15:10:08.012Z,7.81
2022-11-30T15:12:35.829Z,7.79
2022-11-30T15:15:20.074Z,7.74
2022-11-30T15:17:50.674Z,7.74
2022-11-30T15:20:23.094Z,7.77
2022-11-30T15:22:49.895Z,7.78
2022-11-30T15:25:16.757Z,7.79
2022-11-30T15:27:43.756Z,7.82
2022-11-30T15:30:15.326Z,7.79
2022-11-30T15:32:45.242Z,7.76
2022-11-30T15:36:04.875Z,7.72
2022-11-30T15:38:27.380Z,7.67
2022-11-30T15:41:05.862Z,7.71
2022-11-30T15:43:38.688Z,7.70
2022-11-30T15:46:06.348Z,7.72
2022-11-30T15:48:38.152Z,7.65
2022-11-30T15:51:05.490Z,7.65
2022-11-30T15:53:54.218Z,7.56
2022-11-30T15:56:28.736Z,7.64
2022-11-30T15:59:20.464Z,7.56
2022-11-30T16:02:08.911Z,7.58
2022-11-30T16:04:57.103Z,7.56
2022-11-30T16:07:52.968Z,7.58
2022-11-30T16:10:35.002Z,7.52
2022-11-30T16:13:02.192Z,7.52
2022-11-30T16:15:31.296Z,7.54
2022-11-30T16:18:12.783Z,7.57
2022-11-30T16:20:41.862Z,7.54
2022-11-30T16:23:16.142Z,7.59
2022-11-30T16:25:44.273Z,7.57
2022-11-30T16:28:12.372Z,7.60
2022-11-30T16:30:39.916Z,7.57
2022-11-30T16:33:13.253Z,7.54
2022-11-30T16:35:55.116Z,7.53
2022-11-30T16:38:23.174Z,7.52
2022-11-30T16:40:49.963Z,7.49
2022-11-30T16:43:16.668Z,7.49
2022-11-30T16:45:46.853Z,7.48
2022-11-30T16:48:14.401Z,7.52
2022-11-30T16:50:41.623Z,7.52
2022-11-30T16:53:17.527Z,7.51
2022-11-30T16:55:44.543Z,7.61
2022-11-30T16:58:11.222Z,7.62
2022-11-30T17:00:40.270Z,7.64
2022-11-30T17:03:20.717Z,7.60
2022-11-30T17:05:47.511Z,7.58
2022-11-30T17:08:14.224Z,7.59
2022-11-30T17:10:41.010Z,7.57
2022-11-30T17:13:13.736Z,7.59
2022-11-30T17:15:40.423Z,7.55
2022-11-30T17:18:07.163Z,7.59
2022-11-30T17:20:35.865Z,7.57
2022-11-30T17:23:03.463Z,7.60
2022-11-30T17:25:30.113Z,7.59
2022-11-30T17:27:56.699Z,7.57
2022-11-30T17:30:24.111Z,7.53
2022-11-30T17:32:50.825Z,7.54
2022-11-30T17:35:19.088Z,7.54
2022-11-30T17:37:46.156Z,7.60
2022-11-30T17:40:15.569Z,7.51
2022-11-30T17:42:43.471Z,7.42
2022-11-30T17:45:10.335Z,7.40
2022-11-30T17:47:37.604Z,7.32
2022-11-30T17:50:05.274Z,7.23
2022-11-30T17:52:31.864Z,7.27
2022-11-30T17:54:58.489Z,7.32
2022-11-30T17:57:25.104Z,7.30
2022-11-30T17:59:51.699Z,7.28
2022-11-30T18:02:18.398Z,7.33
2022-11-30T18:04:45.108Z,7.32
2022-11-30T18:07:11.924Z,7.23
2022-11-30T18:09:42.515Z,7.18
2022-11-30T18:12:10.470Z,6.99
2022-11-30T18:14:37.078Z,6.99
2022-11-30T18:17:03.962Z,7.04
2022-11-30T18:19:30.719Z,7.03
2022-11-30T18:21:57.492Z,7.05
2022-11-30T18:24:25.720Z,7.07
2022-11-30T18:26:52.938Z,6.99
2022-11-30T18:29:19.934Z,6.77
2022-11-30T18:31:48.478Z,6.92
2022-11-30T18:34:15.381Z,6.96
2022-11-30T18:36:42.128Z,6.98
2022-11-30T18:39:09.128Z,7.01
2022-11-30T18:41:36.517Z,7.05
2022-11-30T18:44:03.089Z,7.04
2022-11-30T18:46:30.346Z,7.03
2022-11-30T18:48:57.157Z,7.05
2022-11-30T18:51:26.204Z,7.15
2022-11-30T18:53:58.604Z,7.11
2022-11-30T18:56:26.985Z,7.12
2022-11-30T18:58:59.001Z,7.05
2022-11-30T19:01:26.656Z,7.13
2022-11-30T19:03:55.890Z,7.10
2022-11-30T19:06:24.777Z,7.15
2022-11-30T19:08:51.514Z,7.09
2022-11-30T19:11:18.731Z,7.10
2022-11-30T19:13:45.800Z,7.10
2022-11-30T19:16:15.153Z,7.22
2022-11-30T19:18:42.520Z,7.29
2022-11-30T19:21:11.044Z,7.21
2022-11-30T19:23:38.630Z,7.24
2022-11-30T19:26:06.968Z,7.18
2022-11-30T19:28:35.342Z,7.08
2022-11-30T19:31:08.351Z,7.12
2022-11-30T19:33:36.918Z,7.10
2022-11-30T19:36:05.585Z,7.10
2022-11-30T19:38:33.006Z,7.20
2022-11-30T19:40:59.625Z,7.02
2022-11-30T19:43:26.237Z,7.11
2022-11-30T19:45:52.846Z,7.10
2022-11-30T19:48:19.529Z,7.06
2022-11-30T19:50:46.131Z,6.94
2022-11-30T19:53:12.771Z,6.98
2022-11-30T19:55:40.410Z,6.92
2022-11-30T19:58:07.005Z,6.95
2022-11-30T20:00:33.675Z,6.96
2022-11-30T20:03:00.328Z,6.97
2022-11-30T20:05:27.068Z,6.80
2022-11-30T20:07:53.748Z,6.90
2022-11-30T20:10:20.362Z,6.80
2022-11-30T20:12:46.940Z,6.73
2022-11-30T20:15:13.502Z,6.82
2022-11-30T20:17:40.157Z,6.85
2022-11-30T20:20:07.163Z,6.90
2022-11-30T20:22:33.850Z,6.76
2022-11-30T20:25:00.461Z,6.74
2022-11-30T20:27:27.146Z,6.80
2022-11-30T20:29:53.745Z,6.83
2022-11-30T20:32:20.426Z,6.81
2022-11-30T20:34:47.192Z,6.85
2022-11-30T20:37:15.839Z,6.84
2022-11-30T20:39:45.716Z,6.79
2022-11-30T20:42:13.364Z,6.76
2022-11-30T20:44:39.948Z,6.76
2022-11-30T20:47:06.585Z,6.61
2022-11-30T20:49:33.173Z,6.66
2022-11-30T20:51:59.832Z,6.67
2022-11-30T20:54:26.545Z,6.71
2022-11-30T20:56:53.127Z,6.76
2022-11-30T20:59:23.665Z,6.71
2022-11-30T21:01:50.502Z,6.65
2022-11-30T21:04:17.238Z,6.57
2022-11-30T21:06:45.710Z,6.58
2022-11-30T21:09:17.482Z,6.52
2022-11-30T21:11:45.093Z,6.50
2022-11-30T21:14:12.372Z,6.40
2022-11-30T21:16:39.259Z,6.33
2022-11-30T21:19:06.274Z,6.38
2022-11-30T21:21:35.357Z,6.31
2022-11-30T21:24:08.025Z,6.49
2022-11-30T21:26:37.999Z,6.52
2022-11-30T21:29:16.190Z,6.54
2022-11-30T21:31:43.462Z,6.56
2022-11-30T21:34:10.343Z,6.51
2022-11-30T21:36:37.099Z,6.38
2022-11-30T21:39:07.075Z,6.37
2022-11-30T21:41:36.180Z,6.40
2022-11-30T21:44:04.025Z,6.33
2022-11-30T21:46:31.171Z,6.33
2022-11-30T21:48:58.259Z,6.34
2022-11-30T21:51:27.359Z,6.38
2022-11-30T21:53:57.047Z,6.35
2022-11-30T21:56:26.083Z,6.40
2022-11-30T21:58:52.987Z,6.44
2022-11-30T22:01:34.526Z,6.46
2022-11-30T22:04:03.330Z,6.36
2022-11-30T22:06:31.363Z,6.23
2022-11-30T22:09:03.548Z,6.31
2022-11-30T22:11:30.923Z,6.31
2022-11-30T22:13:57.476Z,6.27
2022-11-30T22:16:29.971Z,6.33
2022-11-30T22:19:01.168Z,6.33
2022-11-30T22:21:29.974Z,6.31
2022-11-30T22:24:01.874Z,6.27
2022-11-30T22:26:34.163Z,6.30
2022-11-30T22:29:04.053Z,6.31
2022-11-30T22:31:36.465Z,6.41
2022-11-30T22:34:03.304Z,6.40
2022-11-30T22:36:31.832Z,6.39
2022-11-30T22:38:59.767Z,6.45
2022-11-30T22:41:27.537Z,6.50
2022-11-30T22:43:55.612Z,6.48
2022-11-30T22:46:33.837Z,6.56
2022-11-30T22:49:02.579Z,6.57
2022-11-30T22:51:31.408Z,6.64
2022-11-30T22:53:58.659Z,6.62
2022-11-30T22:56:28.568Z,6.64
2022-11-30T22:58:58.825Z,6.76
2022-11-30T23:01:28.319Z,6.77
2022-11-30T23:03:57.025Z,6.75
2022-11-30T23:06:24.695Z,6.64
2022-11-30T23:08:52.019Z,6.65
2022-11-30T23:11:25.464Z,6.70
2022-11-30T23:13:52.381Z,6.66
2022-11-30T23:16:20.160Z,6.66
2022-11-30T23:18:54.690Z,6.68
2022-11-30T23:21:22.920Z,6.65
2022-11-30T23:23:50.183Z,6.62
2022-11-30T23:26:25.304Z,6.65
2022-11-30T23:28:53.452Z,6.62
2022-11-30T23:31:32.913Z,6.61
2022-11-30T23:34:04.734Z,6.66
2022-11-30T23:36:32.119Z,6.70
2022-11-30T23:39:04.363Z,6.72
2022-11-30T23:41:31.213Z,6.73
2022-11-30T23:43:57.884Z,6.73
2022-11-30T23:46:25.039Z,6.76
2022-11-30T23:48:52.137Z,6.85
2022-11-30T23:51:18.892Z,6.83
2022-11-30T23:53:46.696Z,6.85
2022-11-30T23:56:16.228Z,6.89
2022-11-30T23:58:43.431Z,6.88
